Time;durP1;ratioP1;P1;durP2;ratioP2;P2;SDS_P1;SDS_P2;PMS_P1;PMS_P2;Temp;Humidity;BMP_temperature;BMP_pressure;BME280_temperature;BME280_humidity;BME280_pressure;Samples;Min_cycle;Max_cycle;Signal;HPM_P1;HPM_P2
2023/03/27 00:00:55;;;;;;;16.10;1.80;;;;;;;5.33;100.00;101518.84;5088438;28;20332;-49
2023/03/27 00:03:21;;;;;;;17.60;2.25;;;;;;;5.49;100.00;101525.38;5082120;28;20145;-49
2023/03/27 00:05:47;;;;;;;20.83;1.77;;;;;;;5.49;100.00;101537.91;5070377;28;20545;-47
2023/03/27 00:08:12;;;;;;;25.67;2.15;;;;;;;5.46;100.00;101539.00;5085500;28;20032;-49
2023/03/27 00:10:38;;;;;;;23.55;2.33;;;;;;;5.52;100.00;101542.13;5090937;28;20385;-48
2023/03/27 00:13:04;;;;;;;29.13;2.20;;;;;;;5.61;100.00;101541.31;5088957;28;20063;-50
2023/03/27 00:15:30;;;;;;;14.05;2.00;;;;;;;5.59;100.00;101544.13;5070105;28;20043;-48
2023/03/27 00:17:57;;;;;;;17.75;2.00;;;;;;;5.52;100.00;101542.13;5074365;28;20137;-48
2023/03/27 00:20:24;;;;;;;12.20;1.65;;;;;;;5.49;100.00;101545.91;5078203;28;20020;-48
2023/03/27 00:22:54;;;;;;;13.10;1.30;;;;;;;5.56;100.00;101555.09;5084818;28;20065;-48
2023/03/27 00:25:21;;;;;;;8.48;1.33;;;;;;;5.55;100.00;101563.22;5068194;28;20036;-47
2023/03/27 00:27:47;;;;;;;14.93;1.63;;;;;;;5.55;100.00;101563.22;5084029;28;20101;-52
2023/03/27 00:30:13;;;;;;;17.05;2.67;;;;;;;5.61;100.00;101562.69;5088105;28;20391;-46
2023/03/27 00:32:38;;;;;;;19.02;1.90;;;;;;;5.58;100.00;101565.63;5074287;28;20032;-49
2023/03/27 00:35:04;;;;;;;40.75;3.17;;;;;;;5.63;100.00;101566.91;5074735;28;20115;-48
2023/03/27 00:37:30;;;;;;;14.82;1.35;;;;;;;5.60;100.00;101566.34;5074690;28;20032;-48
2023/03/27 00:39:55;;;;;;;11.60;1.67;;;;;;;5.60;100.00;101571.69;5070214;28;20043;-48
2023/03/27 00:42:22;;;;;;;9.02;1.08;;;;;;;5.59;100.00;101588.69;5070110;28;20399;-47
2023/03/27 00:44:51;;;;;;;18.65;1.58;;;;;;;5.57;100.00;101582.63;5068141;28;20070;-47
2023/03/27 00:47:29;;;;;;;22.92;1.70;;;;;;;5.53;100.00;101587.41;5067431;28;20048;-48
2023/03/27 00:49:56;;;;;;;9.00;0.90;;;;;;;5.42;100.00;101596.28;5068537;28;20435;-47
2023/03/27 00:52:21;;;;;;;20.48;1.73;;;;;;;5.36;100.00;101591.47;5067835;28;20028;-49
2023/03/27 00:54:47;;;;;;;4.07;0.80;;;;;;;5.26;100.00;101601.22;5069052;28;20028;-47
2023/03/27 00:57:15;;;;;;;6.13;0.77;;;;;;;5.21;100.00;101598.09;5074917;28;20039;-48
2023/03/27 00:59:41;;;;;;;7.35;0.95;;;;;;;5.18;100.00;101609.88;5084158;28;20391;-48
2023/03/27 01:02:07;;;;;;;1.67;0.75;;;;;;;5.26;100.00;101595.91;5090232;28;20024;-51
2023/03/27 01:04:34;;;;;;;9.93;1.27;;;;;;;5.12;100.00;101593.56;5077337;28;20047;-48
2023/03/27 01:07:02;;;;;;;12.43;1.05;;;;;;;4.99;100.00;101599.91;5076361;28;20020;-47
2023/03/27 01:09:27;;;;;;;7.85;1.63;;;;;;;4.93;100.00;101597.75;5088374;28;20023;-48
2023/03/27 01:12:17;;;;;;;9.65;1.13;;;;;;;4.84;100.00;101594.03;5090106;28;20452;-52
2023/03/27 01:15:06;;;;;;;17.48;1.42;;;;;;;4.77;100.00;101605.31;5074043;28;20029;-48
2023/03/27 01:17:44;;;;;;;13.25;1.85;;;;;;;4.83;100.00;101613.66;5069312;28;20039;-50
2023/03/27 01:20:29;;;;;;;;;;;;;;;4.86;100.00;101620.56;5070088;28;20085;-47
2023/03/27 01:23:15;;;;;;;15.57;1.58;;;;;;;4.87;100.00;101627.59;5069878;28;19919;-46
2023/03/27 01:26:10;;;;;;;21.00;2.03;;;;;;;4.92;100.00;101632.53;5079397;28;20039;-48
2023/03/27 01:28:53;;;;;;;10.98;1.98;;;;;;;4.94;100.00;101639.44;5063729;28;20488;-47
2023/03/27 01:31:56;;;;;;;6.38;1.48;;;;;;;4.92;100.00;101633.38;5068507;28;20031;-47
2023/03/27 01:34:41;;;;;;;14.25;1.65;;;;;;;4.83;100.00;101642.97;5066889;28;20024;-48
2023/03/27 01:37:51;;;;;;;10.52;1.05;;;;;;;4.89;100.00;101652.31;5063899;28;20033;-48
2023/03/27 01:40:29;;;;;;;13.18;1.77;;;;;;;4.83;100.00;101647.47;5040282;28;20036;-47
2023/03/27 01:43:14;;;;;;;10.07;1.05;;;;;;;4.80;100.00;101658.41;5089718;28;20070;-49
2023/03/27 01:45:56;;;;;;;4.80;1.02;;;;;;;4.76;100.00;101646.28;5062512;28;20033;-48
2023/03/27 01:48:36;;;;;;;10.15;1.38;;;;;;;4.70;100.00;101652.09;5047475;28;20083;-47
2023/03/27 01:51:15;;;;;;;14.13;1.35;;;;;;;4.53;100.00;101656.13;5065132;28;20130;-46
2023/03/27 01:53:54;;;;;;;6.35;1.20;;;;;;;4.40;100.00;101657.13;5067091;28;20036;-48
2023/03/27 01:56:26;;;;;;;11.38;0.98;;;;;;;4.45;100.00;101658.53;5065999;28;20086;-46
2023/03/27 01:58:56;;;;;;;3.85;0.68;;;;;;;4.38;100.00;101663.53;5068247;28;20024;-47
2023/03/27 02:01:26;;;;;;;10.57;1.02;;;;;;;4.45;100.00;101667.41;5069346;28;20070;-48
2023/03/27 02:03:56;;;;;;;5.15;0.70;;;;;;;4.47;100.00;101678.78;5068674;28;20113;-48
2023/03/27 02:06:36;;;;;;;6.38;0.90;;;;;;;4.49;100.00;101690.19;5085700;28;20490;-46
2023/03/27 02:09:19;;;;;;;6.63;1.05;;;;;;;4.36;100.00;101697.44;5092749;28;20064;-47
2023/03/27 02:12:07;;;;;;;6.63;1.10;;;;;;;4.10;100.00;101721.63;5092010;28;20028;-48
2023/03/27 02:14:36;;;;;;;;;;;;;;;3.82;100.00;101724.69;5081104;28;20074;-48
2023/03/27 02:17:08;;;;;;;3.30;0.80;;;;;;;3.62;100.00;101723.56;5071894;28;19923;-48
2023/03/27 02:19:37;;;;;;;5.90;0.60;;;;;;;3.40;100.00;101726.97;5072851;28;20109;-47
2023/03/27 02:22:02;;;;;;;4.80;0.82;;;;;;;3.36;100.00;101728.16;5070381;28;20058;-48
2023/03/27 02:24:28;;;;;;;8.15;0.73;;;;;;;3.27;100.00;101725.22;5070825;28;20032;-48
2023/03/27 02:27:28;;;;;;;11.73;1.25;;;;;;;3.24;100.00;101732.59;5072822;28;20044;-48
2023/03/27 02:30:10;;;;;;;6.72;0.80;;;;;;;3.22;100.00;101731.84;5072707;28;20032;-48
2023/03/27 02:32:57;;;;;;;12.15;1.17;;;;;;;3.24;100.00;101738.75;5069779;28;20056;-47
2023/03/27 02:35:45;;;;;;;7.65;1.05;;;;;;;3.15;100.00;101730.59;5070438;28;20032;-48
2023/03/27 02:38:22;;;;;;;7.78;0.85;;;;;;;3.15;100.00;101742.06;5069479;28;20024;-48
2023/03/27 02:41:29;;;;;;;3.58;0.80;;;;;;;3.08;100.00;101747.00;5072379;28;20055;-48
2023/03/27 02:44:12;;;;;;;3.70;0.88;;;;;;;3.00;100.00;101752.03;5070798;28;20174;-48
2023/03/27 02:46:56;;;;;;;4.40;1.20;;;;;;;2.95;100.00;101753.28;5070940;28;20051;-48
2023/03/27 02:49:30;;;;;;;5.85;1.10;;;;;;;2.88;100.00;101754.72;5079180;28;20119;-48
2023/03/27 02:52:00;;;;;;;8.95;1.00;;;;;;;2.83;100.00;101755.88;5090888;28;20024;-49
2023/03/27 02:54:31;;;;;;;4.78;1.00;;;;;;;2.75;100.00;101750.25;5081996;28;20111;-49
2023/03/27 02:57:00;;;;;;;5.65;1.50;;;;;;;2.72;100.00;101754.94;5071262;28;20409;-48
2023/03/27 02:59:38;;;;;;;5.82;1.10;;;;;;;2.73;100.00;101759.28;5070357;28;20055;-49
2023/03/27 03:02:04;;;;;;;;;;;;;;;2.72;100.00;101758.44;5064163;28;20039;-47
2023/03/27 03:04:34;;;;;;;2.63;1.20;;;;;;;2.75;100.00;101766.22;5070605;28;20304;-48
2023/03/27 03:07:05;;;;;;;7.70;1.17;;;;;;;2.91;100.00;101791.72;5069235;28;20068;-49
2023/03/27 03:09:30;;;;;;;11.50;1.63;;;;;;;3.06;100.00;101790.63;5071979;28;20128;-46
2023/03/27 03:11:56;;;;;;;10.45;1.25;;;;;;;3.24;100.00;101802.59;5070523;28;20539;-48
2023/03/27 03:14:25;;;;;;;12.05;1.10;;;;;;;3.36;100.00;101797.34;5071073;28;20032;-47
2023/03/27 03:16:51;;;;;;;15.93;1.67;;;;;;;3.35;100.00;101800.97;5069428;28;20031;-47
2023/03/27 03:19:16;;;;;;;9.85;1.33;;;;;;;3.43;100.00;101803.94;5071696;28;20024;-48
2023/03/27 03:21:41;;;;;;;6.93;1.42;;;;;;;3.51;100.00;101804.22;5068737;28;20039;-49
2023/03/27 03:24:07;;;;;;;8.30;1.45;;;;;;;3.54;100.00;101811.97;5070643;28;20423;-48
2023/03/27 03:26:33;;;;;;;4.88;1.45;;;;;;;3.50;100.00;101810.47;5076670;28;20032;-48
2023/03/27 03:28:59;;;;;;;15.60;2.13;;;;;;;3.46;100.00;101809.88;5078325;28;20028;-48
2023/03/27 03:31:25;;;;;;;10.15;1.15;;;;;;;3.46;100.00;101809.03;5069502;28;20091;-48
2023/03/27 03:33:51;;;;;;;7.13;1.35;;;;;;;3.46;100.00;101806.34;5070837;28;20032;-48
2023/03/27 03:36:16;;;;;;;21.58;2.25;;;;;;;3.42;100.00;101812.84;5070190;28;20055;-48
2023/03/27 03:38:41;;;;;;;8.27;1.50;;;;;;;3.39;100.00;101807.75;5070928;28;20040;-48
2023/03/27 03:41:07;;;;;;;12.93;2.13;;;;;;;3.39;100.00;101816.59;5070786;28;20035;-48
2023/03/27 03:43:32;;;;;;;12.13;1.55;;;;;;;3.39;100.00;101819.25;5071405;28;20383;-47
2023/03/27 03:45:58;;;;;;;29.67;2.00;;;;;;;3.38;100.00;101819.38;5069268;28;20033;-48
2023/03/27 03:48:24;;;;;;;9.63;1.38;;;;;;;3.41;100.00;101821.81;5070920;28;20109;-48
2023/03/27 03:50:49;;;;;;;34.85;1.77;;;;;;;3.44;100.00;101832.22;5087078;28;20487;-48
2023/03/27 03:53:17;;;;;;;24.13;3.10;;;;;;;3.44;100.00;101817.09;5091079;28;20494;-48
2023/03/27 03:55:43;;;;;;;16.08;2.15;;;;;;;3.44;100.00;101830.41;5074314;28;20120;-47
2023/03/27 03:58:09;;;;;;;20.30;1.98;;;;;;;3.57;100.00;101830.38;5070608;28;20039;-48
2023/03/27 04:00:37;;;;;;;15.80;1.75;;;;;;;3.59;100.00;101832.94;5074902;28;20107;-49
2023/03/27 04:03:07;;;;;;;18.23;1.80;;;;;;;3.59;100.00;101832.94;5091289;28;20495;-49
2023/03/27 04:05:33;;;;;;;18.75;1.90;;;;;;;3.63;100.00;101821.91;5076120;28;20039;-46
2023/03/27 04:07:58;;;;;;;20.17;1.88;;;;;;;3.71;100.00;101824.91;5072709;28;20044;-48
2023/03/27 04:10:25;;;;;;;12.57;1.20;;;;;;;3.70;100.00;101823.19;5090710;28;20071;-46
2023/03/27 04:12:51;;;;;;;18.00;1.77;;;;;;;3.75;100.00;101825.50;5090550;28;20020;-48
2023/03/27 04:15:17;;;;;;;14.60;1.67;;;;;;;3.79;100.00;101826.13;5079244;28;20451;-48
2023/03/27 04:17:43;;;;;;;16.23;1.83;;;;;;;3.80;100.00;101834.00;5071467;28;20021;-46
2023/03/27 04:20:11;;;;;;;16.58;1.83;;;;;;;3.84;100.00;101829.28;5079681;28;20028;-50
2023/03/27 04:22:36;;;;;;;;;;;;;;;3.88;100.00;101830.78;5085858;28;20222;-48
2023/03/27 04:25:04;;;;;;;25.67;2.13;;;;;;;3.94;100.00;101830.31;5068354;28;19994;-47
2023/03/27 04:27:30;;;;;;;16.42;2.08;;;;;;;3.97;100.00;101830.06;5068861;28;20127;-48
2023/03/27 04:29:55;;;;;;;24.77;1.83;;;;;;;3.97;100.00;101838.06;5071516;28;20083;-49
2023/03/27 04:32:20;;;;;;;16.15;1.65;;;;;;;4.05;100.00;101838.34;5069493;28;20444;-47
2023/03/27 04:34:48;;;;;;;21.23;2.20;;;;;;;4.12;100.00;101839.59;5070752;28;20121;-49
2023/03/27 04:37:13;;;;;;;26.25;2.78;;;;;;;4.16;100.00;101859.72;5090708;28;20445;-48
2023/03/27 04:39:41;;;;;;;18.25;1.42;;;;;;;4.26;100.00;101867.00;5087121;28;20028;-48
2023/03/27 04:42:10;;;;;;;28.08;2.30;;;;;;;4.36;100.00;101878.66;5070202;28;20136;-47
2023/03/27 04:44:36;;;;;;;26.85;2.42;;;;;;;4.36;100.00;101874.19;5070163;28;20441;-48
2023/03/27 04:47:02;;;;;;;33.20;3.10;;;;;;;4.35;100.00;101884.97;5071354;28;20064;-48
2023/03/27 04:49:28;;;;;;;21.70;2.00;;;;;;;4.22;100.00;101884.22;5074788;28;20184;-47
2023/03/27 04:51:54;;;;;;;27.02;2.40;;;;;;;4.16;100.00;101889.03;5068162;28;20028;-47
2023/03/27 04:54:21;;;;;;;32.38;4.47;;;;;;;4.00;100.00;101879.59;5069370;28;20394;-48
2023/03/27 04:56:47;;;;;;;23.00;1.90;;;;;;;3.91;100.00;101878.47;5071078;28;20430;-48
2023/03/27 04:59:14;;;;;;;13.60;1.90;;;;;;;3.81;100.00;101878.31;5070562;28;20033;-48
2023/03/27 05:01:40;;;;;;;13.20;2.70;;;;;;;3.73;100.00;101881.53;5070737;28;20020;-49
2023/03/27 05:04:05;;;;;;;15.50;2.03;;;;;;;3.69;100.00;101885.38;5070333;28;20028;-48
2023/03/27 05:06:31;;;;;;;28.27;2.55;;;;;;;3.67;100.00;101889.97;5080329;28;20689;-49
2023/03/27 05:08:57;;;;;;;19.73;1.90;;;;;;;3.61;100.00;101893.09;5070453;28;20031;-47
2023/03/27 05:11:23;;;;;;;18.90;3.25;;;;;;;3.50;100.00;101885.00;5080759;28;20126;-48
2023/03/27 05:13:48;;;;;;;22.65;2.28;;;;;;;3.44;100.00;101896.09;5091483;28;20024;-48
2023/03/27 05:16:16;;;;;;;28.10;2.50;;;;;;;3.35;100.00;101891.44;5078279;28;20039;-49
2023/03/27 05:18:43;;;;;;;24.35;3.45;;;;;;;3.34;100.00;101890.56;5072797;28;20153;-49
2023/03/27 05:21:10;;;;;;;17.88;3.65;;;;;;;3.24;100.00;101895.72;5071219;28;20033;-50
2023/03/27 05:23:36;;;;;;;30.83;2.90;;;;;;;3.17;100.00;101902.41;5081917;28;20472;-48
2023/03/27 05:26:01;;;;;;;33.50;4.90;;;;;;;3.15;100.00;101901.66;5076083;28;20024;-50
2023/03/27 05:28:28;;;;;;;38.55;3.70;;;;;;;3.12;100.00;101907.22;5075368;28;20040;-49
2023/03/27 05:30:53;;;;;;;20.45;3.10;;;;;;;3.06;100.00;101911.16;5067898;28;20102;-48
2023/03/27 05:33:19;;;;;;;32.80;3.40;;;;;;;3.02;100.00;101914.13;5071365;28;20212;-48
2023/03/27 05:35:47;;;;;;;19.60;2.95;;;;;;;3.02;100.00;101911.47;5080501;28;20468;-49
2023/03/27 05:38:13;;;;;;;18.05;2.92;;;;;;;3.03;100.00;101918.50;5068689;28;20029;-48
2023/03/27 05:40:38;;;;;;;20.73;3.38;;;;;;;3.09;100.00;101920.72;5075154;28;20128;-51
2023/03/27 05:43:04;;;;;;;18.50;3.22;;;;;;;3.22;100.00;101931.38;5075669;28;20135;-51
2023/03/27 05:45:29;;;;;;;30.35;4.95;;;;;;;3.40;100.00;101931.88;5078143;28;20502;-50
2023/03/27 05:47:56;;;;;;;28.90;3.53;;;;;;;3.45;100.00;101938.56;5082503;28;20048;-48
2023/03/27 05:50:33;;;;;;;38.75;3.33;;;;;;;3.56;100.00;101927.16;5089747;28;20020;-48
2023/03/27 05:53:08;;;;;;;31.13;3.65;;;;;;;3.70;100.00;101924.34;5081028;28;20389;-49
2023/03/27 05:55:34;;;;;;;38.20;4.43;;;;;;;3.82;100.00;101922.63;5083114;28;20029;-49
2023/03/27 05:58:00;;;;;;;23.73;2.95;;;;;;;3.94;100.00;101921.72;5077758;28;20032;-50
2023/03/27 06:00:26;;;;;;;26.33;2.53;;;;;;;4.11;100.00;101917.81;5078627;28;20044;-48
2023/03/27 06:02:55;;;;;;;27.27;2.65;;;;;;;4.11;100.00;101920.50;5072029;28;20057;-49
2023/03/27 06:05:21;;;;;;;28.75;2.65;;;;;;;4.22;100.00;101926.84;5073302;28;20104;-48
2023/03/27 06:07:46;;;;;;;35.90;3.28;;;;;;;4.25;100.00;101921.28;5073860;28;20077;-48
2023/03/27 06:10:14;;;;;;;37.30;5.35;;;;;;;4.25;100.00;101923.94;5071695;28;20051;-49
2023/03/27 06:12:40;;;;;;;28.05;4.20;;;;;;;4.32;100.00;101935.84;5070951;28;20039;-49
2023/03/27 06:15:07;;;;;;;26.83;3.50;;;;;;;4.40;100.00;101930.78;5075240;28;20032;-48
2023/03/27 06:17:33;;;;;;;32.28;5.88;;;;;;;4.47;100.00;101939.16;5082872;28;20032;-48
2023/03/27 06:19:58;;;;;;;28.83;4.53;;;;;;;4.51;100.00;101941.50;5089925;28;20510;-49
2023/03/27 06:22:25;;;;;;;28.90;4.07;;;;;;;4.55;100.00;101947.44;5078604;28;20017;-49
2023/03/27 06:24:52;;;;;;;23.77;4.00;;;;;;;4.56;100.00;101955.34;5071652;28;20043;-49
2023/03/27 06:27:21;;;;;;;32.47;4.17;;;;;;;4.66;100.00;101957.28;5077627;28;20479;-49
2023/03/27 06:29:47;;;;;;;26.42;4.22;;;;;;;4.78;100.00;101956.38;5075340;28;20391;-47
2023/03/27 06:32:13;;;;;;;19.17;3.15;;;;;;;4.73;100.00;101955.88;5072168;28;20123;-49
2023/03/27 06:34:38;;;;;;;17.25;2.10;;;;;;;4.69;100.00;101959.75;5072235;28;20515;-49
2023/03/27 06:37:04;;;;;;;30.48;3.65;;;;;;;4.62;100.00;101965.53;5072775;28;20020;-49
2023/03/27 06:39:29;;;;;;;36.35;7.53;;;;;;;4.60;100.00;101963.94;5070850;28;20036;-48
2023/03/27 06:41:55;;;;;;;21.90;3.22;;;;;;;4.60;100.00;101962.13;5070170;28;20475;-49
2023/03/27 06:44:20;;;;;;;26.45;3.13;;;;;;;4.62;100.00;101954.84;5072130;28;20078;-49
2023/03/27 06:46:46;;;;;;;24.23;2.20;;;;;;;4.65;100.00;101966.25;5071266;28;20510;-50
2023/03/27 06:49:11;;;;;;;18.85;1.73;;;;;;;4.55;100.00;101972.28;5072594;28;20395;-50
2023/03/27 06:51:37;;;;;;;62.22;16.40;;;;;;;4.46;100.00;101970.31;5076538;28;20122;-49
2023/03/27 06:54:03;;;;;;;14.10;1.75;;;;;;;4.40;100.00;101970.78;5072775;28;20091;-48
2023/03/27 06:56:29;;;;;;;18.75;1.88;;;;;;;4.76;100.00;101977.81;5072238;28;20040;-47
2023/03/27 06:58:54;;;;;;;22.38;2.08;;;;;;;5.63;100.00;101986.19;5072219;28;20464;-48
2023/03/27 07:01:20;;;;;;;32.00;3.53;;;;;;;6.97;100.00;101975.28;5072167;28;20159;-48
2023/03/27 07:03:45;;;;;;;24.60;1.73;;;;;;;7.63;100.00;101989.16;5072148;28;20025;-50
2023/03/27 07:06:10;;;;;;;12.27;1.40;;;;;;;8.86;100.00;101988.84;5072237;28;20491;-47
2023/03/27 07:08:36;;;;;;;18.67;1.95;;;;;;;9.14;99.46;101994.34;5072116;28;20408;-46
2023/03/27 07:11:02;;;;;;;13.32;1.42;;;;;;;8.88;93.47;101996.75;5072148;28;20032;-46
2023/03/27 07:13:28;;;;;;;23.38;3.47;;;;;;;8.52;93.94;102001.84;5072140;28;20068;-48
2023/03/27 07:15:53;;;;;;;19.10;1.48;;;;;;;8.39;93.94;101995.88;5071966;28;20048;-48
2023/03/27 07:18:20;;;;;;;18.98;2.42;;;;;;;7.96;96.86;102011.28;5071789;28;20020;-47
2023/03/27 07:20:46;;;;;;;15.27;1.73;;;;;;;7.73;99.33;102015.16;5071702;28;20531;-49
2023/03/27 07:23:12;;;;;;;24.88;2.78;;;;;;;7.56;97.92;102014.81;5071767;28;20056;-48
2023/03/27 07:25:38;;;;;;;18.60;1.65;;;;;;;7.48;100.00;102011.94;5071369;28;20061;-50
2023/03/27 07:28:15;;;;;;;18.20;2.97;;;;;;;8.57;99.07;102021.88;5071540;28;20082;-46
2023/03/27 07:30:40;;;;;;;13.32;1.90;;;;;;;9.96;91.27;102019.66;5071907;28;20029;-48
2023/03/27 07:33:08;;;;;;;16.30;2.40;;;;;;;10.65;84.54;102027.16;5071487;28;20047;-47
2023/03/27 07:35:34;;;;;;;11.35;1.45;;;;;;;9.81;77.92;102036.25;5071521;28;20105;-47
2023/03/27 07:38:02;;;;;;;13.05;1.52;;;;;;;9.20;81.64;102042.09;5070127;28;20028;-47
2023/03/27 07:40:27;;;;;;;19.48;1.77;;;;;;;8.60;84.90;102042.22;5071389;28;20033;-48
2023/03/27 07:42:52;;;;;;;15.35;2.10;;;;;;;9.08;86.91;102044.06;5071629;28;20032;-50
2023/03/27 07:45:20;;;;;;;10.13;1.40;;;;;;;9.82;83.94;102040.66;5071414;28;20032;-49
2023/03/27 07:47:45;;;;;;;13.93;1.30;;;;;;;10.98;80.01;102049.88;5071455;28;20117;-49
2023/03/27 07:50:13;;;;;;;11.35;1.67;;;;;;;12.32;76.32;102052.19;5071421;28;20036;-49
2023/03/27 07:52:39;;;;;;;;;;;;;;;12.64;74.06;102053.31;5071686;28;20030;-49
2023/03/27 07:55:06;;;;;;;10.27;1.20;;;;;;;13.22;67.26;102044.25;5071256;28;19999;-48
2023/03/27 07:57:32;;;;;;;8.20;1.65;;;;;;;13.24;62.73;102055.69;5071000;28;20020;-49
2023/03/27 07:59:58;;;;;;;13.30;1.30;;;;;;;13.80;63.35;102053.97;5070127;28;20381;-48
2023/03/27 08:02:23;;;;;;;20.25;1.80;;;;;;;14.31;59.65;102059.00;5071822;28;20032;-49
2023/03/27 08:04:50;;;;;;;14.38;1.58;;;;;;;14.25;61.02;102073.25;5071234;28;20039;-48
2023/03/27 08:07:16;;;;;;;14.88;1.85;;;;;;;13.38;58.95;102068.59;5070973;28;20337;-49
2023/03/27 08:09:42;;;;;;;14.18;1.50;;;;;;;13.53;60.61;102079.56;5071043;28;20082;-48
2023/03/27 08:12:07;;;;;;;22.63;1.83;;;;;;;13.56;60.13;102076.50;5071106;28;20033;-49
2023/03/27 08:14:32;;;;;;;9.50;1.40;;;;;;;14.50;57.46;102085.63;5071093;28;20039;-49
2023/03/27 08:16:58;;;;;;;10.90;1.38;;;;;;;14.84;55.29;102091.75;5071050;28;20209;-49
2023/03/27 08:19:24;;;;;;;27.02;1.90;;;;;;;14.55;53.96;102081.59;5070783;28;20032;-48
2023/03/27 08:21:49;;;;;;;8.63;2.00;;;;;;;13.62;54.59;102088.50;5071057;28;20035;-48
2023/03/27 08:24:15;;;;;;;20.52;2.28;;;;;;;12.87;56.57;102097.56;5071644;28;20395;-48
2023/03/27 08:26:40;;;;;;;17.88;2.03;;;;;;;13.28;55.41;102086.84;5070475;28;20024;-46
2023/03/27 08:29:06;;;;;;;21.10;2.30;;;;;;;13.34;52.67;102083.44;5070863;28;20028;-49
2023/03/27 08:31:32;;;;;;;16.83;1.35;;;;;;;14.14;56.53;102096.16;5070376;28;20077;-49
2023/03/27 08:33:57;;;;;;;14.32;1.45;;;;;;;14.83;52.86;102095.50;5070485;28;20032;-49
2023/03/27 08:36:22;;;;;;;13.30;1.83;;;;;;;14.71;54.26;102098.59;5067859;28;20033;-48
2023/03/27 08:38:48;;;;;;;12.38;1.73;;;;;;;14.74;53.80;102094.69;5050280;28;20104;-47
2023/03/27 08:41:27;;;;;;;23.50;1.98;;;;;;;13.89;54.92;102102.66;5050180;28;20071;-48
2023/03/27 08:43:55;;;;;;;29.10;2.15;;;;;;;12.73;59.60;102117.16;5067754;28;20035;-47
2023/03/27 08:46:31;;;;;;;17.50;2.28;;;;;;;13.13;61.54;102112.81;5070385;28;20476;-47
2023/03/27 08:49:02;;;;;;;15.15;2.22;;;;;;;13.93;59.86;102114.81;5069151;28;20392;-48
2023/03/27 08:51:32;;;;;;;14.23;1.70;;;;;;;14.76;58.34;102116.19;5069926;28;20468;-48
2023/03/27 08:54:07;;;;;;;15.40;1.73;;;;;;;15.02;56.75;102138.41;5070415;28;20495;-48
2023/03/27 08:56:36;;;;;;;17.52;2.10;;;;;;;15.22;56.64;102127.94;5068993;28;20182;-48
2023/03/27 08:59:01;;;;;;;12.73;1.98;;;;;;;15.17;54.34;102122.19;5070183;28;20064;-48
2023/03/27 09:01:39;;;;;;;16.00;1.73;;;;;;;15.24;51.97;102138.56;5070018;28;20060;-51
2023/03/27 09:04:23;;;;;;;21.23;2.22;;;;;;;14.82;50.11;102132.56;5070299;28;20031;-48
2023/03/27 09:07:16;;;;;;;15.27;1.90;;;;;;;14.66;50.08;102143.50;5070068;28;20109;-48
2023/03/27 09:09:45;;;;;;;11.88;1.70;;;;;;;14.71;49.57;102146.53;5068551;28;20029;-48
2023/03/27 09:12:29;;;;;;;14.80;1.80;;;;;;;13.77;52.79;102149.03;5071085;28;20055;-48
2023/03/27 09:15:00;;;;;;;18.38;1.70;;;;;;;13.39;57.29;102166.78;5066772;28;20076;-47
2023/03/27 09:17:30;;;;;;;13.18;1.80;;;;;;;13.00;59.08;102166.50;5089324;28;20027;-47
2023/03/27 09:20:07;;;;;;;10.57;1.48;;;;;;;14.03;57.89;102175.00;5089073;28;20082;-48
2023/03/27 09:22:44;;;;;;;16.85;2.38;;;;;;;14.41;58.31;102173.41;5088957;28;20028;-49
2023/03/27 09:25:23;;;;;;;18.95;1.60;;;;;;;15.41;56.95;102164.56;5090421;28;20039;-48
2023/03/27 09:27:50;;;;;;;14.02;2.38;;;;;;;15.45;54.97;102175.88;5088560;28;20059;-46
2023/03/27 09:30:21;;;;;;;14.13;2.47;;;;;;;15.67;53.87;102174.19;5090160;28;20077;-49
2023/03/27 09:32:47;;;;;;;14.20;2.10;;;;;;;16.37;51.88;102165.66;5090325;28;20522;-47
2023/03/27 09:35:14;;;;;;;23.42;2.53;;;;;;;15.65;51.83;102178.94;5088676;28;20119;-49
2023/03/27 09:37:41;;;;;;;18.50;2.03;;;;;;;15.44;53.42;102177.75;5088433;28;20117;-47
2023/03/27 09:40:22;;;;;;;18.65;1.80;;;;;;;16.30;53.19;102181.06;5090017;28;20024;-48
2023/03/27 09:42:48;;;;;;;15.63;2.10;;;;;;;15.23;53.10;102191.13;5088884;28;20446;-47
2023/03/27 09:45:14;;;;;;;12.45;1.90;;;;;;;14.17;54.03;102182.44;5088804;28;20463;-48
2023/03/27 09:47:45;;;;;;;13.52;1.95;;;;;;;12.08;63.52;102188.75;5089665;28;20075;-48
2023/03/27 09:50:23;;;;;;;9.38;1.50;;;;;;;11.13;69.83;102202.91;5071802;28;20024;-48
2023/03/27 09:52:48;;;;;;;15.07;2.72;;;;;;;10.26;80.52;102199.59;5089655;28;20039;-48
2023/03/27 09:55:29;;;;;;;9.38;1.40;;;;;;;9.67;89.28;102200.72;5089843;28;20236;-48
2023/03/27 09:57:59;;;;;;;12.95;1.30;;;;;;;9.26;91.09;102191.94;5089642;28;20028;-47
2023/03/27 10:00:33;;;;;;;15.57;1.73;;;;;;;9.65;94.37;102187.41;5088390;28;20028;-49
2023/03/27 10:03:00;;;;;;;19.35;2.65;;;;;;;10.75;91.09;102184.13;5089645;28;20028;-46
2023/03/27 10:05:26;;;;;;;10.23;1.70;;;;;;;11.59;83.05;102192.91;5088342;28;20119;-47
2023/03/27 10:07:51;;;;;;;8.50;1.40;;;;;;;10.71;80.84;102198.88;5089735;28;20350;-49
2023/03/27 10:10:18;;;;;;;19.15;1.70;;;;;;;10.35;84.46;102211.38;5089751;28;20028;-47
2023/03/27 10:12:53;;;;;;;12.73;1.65;;;;;;;9.35;87.74;102223.34;5079447;28;20446;-50
2023/03/27 10:15:37;;;;;;;10.35;1.45;;;;;;;8.87;91.91;102220.56;5069895;28;20146;-46
2023/03/27 10:18:07;;;;;;;11.60;1.27;;;;;;;8.86;93.14;102224.25;5069135;28;20093;-47
2023/03/27 10:20:32;;;;;;;10.75;1.45;;;;;;;9.35;94.92;102219.84;5069198;28;20094;-47
2023/03/27 10:23:06;;;;;;;13.50;1.48;;;;;;;9.89;95.41;102224.59;5069171;28;20483;-48
2023/03/27 10:25:33;;;;;;;11.60;1.65;;;;;;;10.69;90.34;102219.75;5067929;28;20480;-48
2023/03/27 10:28:17;;;;;;;5.53;1.55;;;;;;;11.06;80.04;102229.63;5071623;28;20078;-49
2023/03/27 10:30:42;;;;;;;7.72;1.33;;;;;;;10.89;78.37;102222.31;5072665;28;20024;-47
2023/03/27 10:33:08;;;;;;;6.22;1.00;;;;;;;10.76;77.68;102231.59;5073033;28;20025;-48
2023/03/27 10:35:34;;;;;;;12.48;1.60;;;;;;;10.69;79.70;102237.72;5072645;28;20029;-47
2023/03/27 10:38:01;;;;;;;6.05;1.00;;;;;;;11.21;75.53;102233.47;5072859;28;20114;-50
2023/03/27 10:40:30;;;;;;;5.75;0.82;;;;;;;11.56;74.98;102233.66;5071304;28;20032;-48
2023/03/27 10:42:56;;;;;;;6.65;1.13;;;;;;;11.85;75.40;102238.81;5072628;28;20398;-48
2023/03/27 10:45:22;;;;;;;11.23;1.60;;;;;;;11.81;72.31;102242.81;5070991;28;20462;-47
2023/03/27 10:47:50;;;;;;;15.07;1.10;;;;;;;11.44;73.22;102243.81;5072718;28;20103;-48
2023/03/27 10:50:21;;;;;;;7.72;1.30;;;;;;;11.52;74.67;102246.59;5072471;28;20444;-48
2023/03/27 10:53:41;;;;;;;14.13;1.52;;;;;;;11.25;75.12;102243.97;5072972;28;20146;-47
2023/03/27 10:56:26;;;;;;;16.25;1.45;;;;;;;11.37;75.66;102248.97;5029752;28;20386;-48
2023/03/27 10:59:01;;;;;;;10.93;0.90;;;;;;;10.66;77.75;102256.88;5066458;28;20076;-50
2023/03/27 11:01:30;;;;;;;17.35;1.92;;;;;;;10.46;81.26;102256.94;5070996;28;20040;-47
2023/03/27 11:04:19;;;;;;;7.15;1.20;;;;;;;10.90;75.57;102253.63;5072248;28;20100;-49
2023/03/27 11:06:48;;;;;;;5.25;1.20;;;;;;;10.82;72.98;102254.41;5067256;28;20425;-48
2023/03/27 11:09:26;;;;;;;6.57;1.10;;;;;;;10.63;72.10;102258.00;5071167;28;20024;-47
2023/03/27 11:12:08;;;;;;;9.38;1.05;;;;;;;11.33;68.53;102262.91;5072467;28;20028;-48
2023/03/27 11:14:55;;;;;;;7.30;0.90;;;;;;;11.42;65.76;102261.97;5071067;28;20025;-49
2023/03/27 11:17:29;;;;;;;10.73;1.30;;;;;;;11.92;67.26;102264.16;5072302;28;20047;-48
2023/03/27 11:20:05;;;;;;;5.65;1.10;;;;;;;12.24;69.21;102268.13;5070951;28;20017;-46
2023/03/27 11:22:38;;;;;;;5.03;1.40;;;;;;;13.01;67.05;102268.22;5072221;28;20466;-49
2023/03/27 11:25:13;;;;;;;16.98;1.42;;;;;;;13.43;69.08;102281.72;5070602;28;20048;-49
2023/03/27 11:27:53;;;;;;;12.77;1.55;;;;;;;13.44;67.09;102282.56;5072049;28;20039;-50
2023/03/27 11:30:31;;;;;;;10.32;1.17;;;;;;;13.13;68.16;102280.41;5070368;28;20043;-48
2023/03/27 11:33:26;;;;;;;12.95;1.33;;;;;;;13.70;63.97;102282.44;5071913;28;20415;-49
2023/03/27 11:35:59;;;;;;;8.20;1.00;;;;;;;13.76;60.33;102285.31;5070564;28;20123;-48